sensor_id;sensor_type;location;lat;lon;timestamp;temperature;humidity
62259;DHT22;48241;48.824;10.102;2023-09-30T00:01:00;18.70;91.90
62259;DHT22;48241;48.824;10.102;2023-09-30T00:03:26;18.40;92.50
62259;DHT22;48241;48.824;10.102;2023-09-30T00:05:51;18.00;92.80
62259;DHT22;48241;48.824;10.102;2023-09-30T00:08:17;17.80;93.40
62259;DHT22;48241;48.824;10.102;2023-09-30T00:10:42;17.90;93.40
62259;DHT22;48241;48.824;10.102;2023-09-30T00:13:08;17.90;93.60
62259;DHT22;48241;48.824;10.102;2023-09-30T00:15:34;17.80;93.80
62259;DHT22;48241;48.824;10.102;2023-09-30T00:17:59;18.00;93.50
62259;DHT22;48241;48.824;10.102;2023-09-30T00:20:29;18.30;93.20
62259;DHT22;48241;48.824;10.102;2023-09-30T00:22:55;18.40;92.80
62259;DHT22;48241;48.824;10.102;2023-09-30T00:25:20;18.50;92.30
62259;DHT22;48241;48.824;10.102;2023-09-30T00:27:47;18.70;92.00
62259;DHT22;48241;48.824;10.102;2023-09-30T00:30:12;18.70;92.10
62259;DHT22;48241;48.824;10.102;2023-09-30T00:32:38;18.80;91.90
62259;DHT22;48241;48.824;10.102;2023-09-30T00:35:05;19.00;91.50
62259;DHT22;48241;48.824;10.102;2023-09-30T00:37:40;19.00;91.20
62259;DHT22;48241;48.824;10.102;2023-09-30T00:40:06;18.80;91.60
62259;DHT22;48241;48.824;10.102;2023-09-30T00:42:32;18.40;92.10
62259;DHT22;48241;48.824;10.102;2023-09-30T00:44:58;18.30;92.50
62259;DHT22;48241;48.824;10.102;2023-09-30T00:47:24;18.00;92.80
62259;DHT22;48241;48.824;10.102;2023-09-30T00:49:51;18.30;92.70
62259;DHT22;48241;48.824;10.102;2023-09-30T00:52:17;18.00;93.00
62259;DHT22;48241;48.824;10.102;2023-09-30T00:54:43;17.90;93.20
62259;DHT22;48241;48.824;10.102;2023-09-30T00:57:10;17.70;93.70
62259;DHT22;48241;48.824;10.102;2023-09-30T00:59:36;17.60;93.80
62259;DHT22;48241;48.824;10.102;2023-09-30T01:02:03;17.80;93.60
62259;DHT22;48241;48.824;10.102;2023-09-30T01:04:30;17.60;94.00
62259;DHT22;48241;48.824;10.102;2023-09-30T01:06:56;17.60;94.00
62259;DHT22;48241;48.824;10.102;2023-09-30T01:09:23;17.50;94.30
62259;DHT22;48241;48.824;10.102;2023-09-30T01:11:48;17.60;94.20
62259;DHT22;48241;48.824;10.102;2023-09-30T01:14:28;17.90;93.90
62259;DHT22;48241;48.824;10.102;2023-09-30T01:16:54;17.80;94.10
62259;DHT22;48241;48.824;10.102;2023-09-30T01:19:20;18.10;93.70
62259;DHT22;48241;48.824;10.102;2023-09-30T01:21:45;18.10;93.20
62259;DHT22;48241;48.824;10.102;2023-09-30T01:24:17;17.70;94.00
62259;DHT22;48241;48.824;10.102;2023-09-30T01:26:42;17.80;93.90
62259;DHT22;48241;48.824;10.102;2023-09-30T01:29:09;17.80;94.20
62259;DHT22;48241;48.824;10.102;2023-09-30T01:31:38;18.10;93.50
62259;DHT22;48241;48.824;10.102;2023-09-30T01:34:04;17.90;93.70
62259;DHT22;48241;48.824;10.102;2023-09-30T01:36:30;17.80;93.70
62259;DHT22;48241;48.824;10.102;2023-09-30T01:38:56;17.80;93.80
62259;DHT22;48241;48.824;10.102;2023-09-30T01:41:22;17.90;93.60
62259;DHT22;48241;48.824;10.102;2023-09-30T01:43:48;18.00;93.70
62259;DHT22;48241;48.824;10.102;2023-09-30T01:46:14;18.00;93.90
62259;DHT22;48241;48.824;10.102;2023-09-30T01:48:39;18.00;93.80
62259;DHT22;48241;48.824;10.102;2023-09-30T01:51:06;18.00;93.70
62259;DHT22;48241;48.824;10.102;2023-09-30T01:53:32;18.20;93.40
62259;DHT22;48241;48.824;10.102;2023-09-30T01:55:58;18.20;93.10
62259;DHT22;48241;48.824;10.102;2023-09-30T01:58:23;18.50;92.90
62259;DHT22;48241;48.824;10.102;2023-09-30T02:00:50;18.50;92.60
62259;DHT22;48241;48.824;10.102;2023-09-30T02:03:16;18.40;92.80
62259;DHT22;48241;48.824;10.102;2023-09-30T02:05:42;18.50;92.30
62259;DHT22;48241;48.824;10.102;2023-09-30T02:08:08;18.50;92.10
62259;DHT22;48241;48.824;10.102;2023-09-30T02:10:34;18.40;92.30
62259;DHT22;48241;48.824;10.102;2023-09-30T02:12:59;18.10;92.90
62259;DHT22;48241;48.824;10.102;2023-09-30T02:15:25;18.10;93.20
62259;DHT22;48241;48.824;10.102;2023-09-30T02:17:51;18.20;93.00
62259;DHT22;48241;48.824;10.102;2023-09-30T02:20:17;18.20;93.00
62259;DHT22;48241;48.824;10.102;2023-09-30T02:22:47;18.10;93.00
62259;DHT22;48241;48.824;10.102;2023-09-30T02:25:13;18.10;93.20
62259;DHT22;48241;48.824;10.102;2023-09-30T02:27:42;18.00;93.50
62259;DHT22;48241;48.824;10.102;2023-09-30T02:30:08;18.00;93.50
62259;DHT22;48241;48.824;10.102;2023-09-30T02:32:37;18.10;93.30
62259;DHT22;48241;48.824;10.102;2023-09-30T02:35:02;18.10;93.50
62259;DHT22;48241;48.824;10.102;2023-09-30T02:37:34;18.10;93.40
62259;DHT22;48241;48.824;10.102;2023-09-30T02:40:03;18.30;93.70
62259;DHT22;48241;48.824;10.102;2023-09-30T02:42:35;18.20;93.00
62259;DHT22;48241;48.824;10.102;2023-09-30T02:45:02;18.20;92.90
62259;DHT22;48241;48.824;10.102;2023-09-30T02:47:28;18.10;93.40
62259;DHT22;48241;48.824;10.102;2023-09-30T02:49:56;18.00;93.70
62259;DHT22;48241;48.824;10.102;2023-09-30T02:52:22;18.00;93.50
62259;DHT22;48241;48.824;10.102;2023-09-30T02:54:48;18.10;93.70
62259;DHT22;48241;48.824;10.102;2023-09-30T02:57:14;18.10;93.40
62259;DHT22;48241;48.824;10.102;2023-09-30T02:59:40;17.80;93.80
62259;DHT22;48241;48.824;10.102;2023-09-30T03:02:06;17.90;93.80
62259;DHT22;48241;48.824;10.102;2023-09-30T03:04:32;18.00;93.70
62259;DHT22;48241;48.824;10.102;2023-09-30T03:06:58;18.10;93.80
62259;DHT22;48241;48.824;10.102;2023-09-30T03:09:23;18.00;93.90
62259;DHT22;48241;48.824;10.102;2023-09-30T03:11:49;17.90;94.00
62259;DHT22;48241;48.824;10.102;2023-09-30T03:14:15;17.80;94.00
62259;DHT22;48241;48.824;10.102;2023-09-30T03:16:41;17.70;94.60
62259;DHT22;48241;48.824;10.102;2023-09-30T03:19:07;17.90;94.10
62259;DHT22;48241;48.824;10.102;2023-09-30T03:21:37;17.80;94.20
62259;DHT22;48241;48.824;10.102;2023-09-30T03:24:06;17.90;94.10
62259;DHT22;48241;48.824;10.102;2023-09-30T03:26:33;17.80;94.10
62259;DHT22;48241;48.824;10.102;2023-09-30T03:28:59;17.90;94.00
62259;DHT22;48241;48.824;10.102;2023-09-30T03:31:25;17.70;94.40
62259;DHT22;48241;48.824;10.102;2023-09-30T03:33:51;17.50;94.60
62259;DHT22;48241;48.824;10.102;2023-09-30T03:36:20;17.30;95.50
62259;DHT22;48241;48.824;10.102;2023-09-30T03:38:46;17.60;95.10
62259;DHT22;48241;48.824;10.102;2023-09-30T03:41:11;17.50;95.00
62259;DHT22;48241;48.824;10.102;2023-09-30T03:43:39;17.50;95.10
62259;DHT22;48241;48.824;10.102;2023-09-30T03:46:07;17.40;95.10
62259;DHT22;48241;48.824;10.102;2023-09-30T03:48:33;17.30;95.40
62259;DHT22;48241;48.824;10.102;2023-09-30T03:51:14;17.30;95.20
62259;DHT22;48241;48.824;10.102;2023-09-30T03:53:43;17.40;95.00
62259;DHT22;48241;48.824;10.102;2023-09-30T03:56:08;17.50;94.80
62259;DHT22;48241;48.824;10.102;2023-09-30T03:58:37;17.70;94.70
62259;DHT22;48241;48.824;10.102;2023-09-30T04:01:03;17.90;94.30
62259;DHT22;48241;48.824;10.102;2023-09-30T04:03:29;17.90;94.20
62259;DHT22;48241;48.824;10.102;2023-09-30T04:05:58;17.90;94.10
62259;DHT22;48241;48.824;10.102;2023-09-30T04:08:23;18.00;94.00
62259;DHT22;48241;48.824;10.102;2023-09-30T04:10:49;18.00;94.00
62259;DHT22;48241;48.824;10.102;2023-09-30T04:13:14;17.90;93.90
62259;DHT22;48241;48.824;10.102;2023-09-30T04:15:40;18.00;93.90
62259;DHT22;48241;48.824;10.102;2023-09-30T04:18:05;18.20;93.70
62259;DHT22;48241;48.824;10.102;2023-09-30T04:20:31;18.20;93.40
62259;DHT22;48241;48.824;10.102;2023-09-30T04:22:57;18.30;93.20
62259;DHT22;48241;48.824;10.102;2023-09-30T04:25:24;18.10;93.40
62259;DHT22;48241;48.824;10.102;2023-09-30T04:27:52;18.20;93.40
62259;DHT22;48241;48.824;10.102;2023-09-30T04:30:18;18.20;93.40
62259;DHT22;48241;48.824;10.102;2023-09-30T04:32:44;18.10;93.50
62259;DHT22;48241;48.824;10.102;2023-09-30T04:35:10;18.20;93.30
62259;DHT22;48241;48.824;10.102;2023-09-30T04:37:37;18.10;93.40
62259;DHT22;48241;48.824;10.102;2023-09-30T04:40:08;18.20;93.40
62259;DHT22;48241;48.824;10.102;2023-09-30T04:42:45;17.80;93.80
62259;DHT22;48241;48.824;10.102;2023-09-30T04:45:12;17.60;94.30
62259;DHT22;48241;48.824;10.102;2023-09-30T04:47:38;17.40;94.50
62259;DHT22;48241;48.824;10.102;2023-09-30T04:50:06;17.20;95.00
62259;DHT22;48241;48.824;10.102;2023-09-30T04:52:34;17.20;95.30
62259;DHT22;48241;48.824;10.102;2023-09-30T04:55:00;17.10;95.70
62259;DHT22;48241;48.824;10.102;2023-09-30T04:57:26;17.00;96.00
62259;DHT22;48241;48.824;10.102;2023-09-30T04:59:52;17.00;96.20
62259;DHT22;48241;48.824;10.102;2023-09-30T05:02:17;17.00;96.40
62259;DHT22;48241;48.824;10.102;2023-09-30T05:04:43;17.20;96.00
62259;DHT22;48241;48.824;10.102;2023-09-30T05:07:09;17.10;95.80
62259;DHT22;48241;48.824;10.102;2023-09-30T05:09:34;17.00;95.80
62259;DHT22;48241;48.824;10.102;2023-09-30T05:12:00;17.00;95.80
62259;DHT22;48241;48.824;10.102;2023-09-30T05:14:25;16.70;96.20
62259;DHT22;48241;48.824;10.102;2023-09-30T05:16:54;16.50;96.40
62259;DHT22;48241;48.824;10.102;2023-09-30T05:19:19;16.60;96.80
62259;DHT22;48241;48.824;10.102;2023-09-30T05:21:46;16.40;97.20
62259;DHT22;48241;48.824;10.102;2023-09-30T05:24:12;16.30;97.40
62259;DHT22;48241;48.824;10.102;2023-09-30T05:26:38;16.30;97.90
62259;DHT22;48241;48.824;10.102;2023-09-30T05:29:03;16.40;97.60
62259;DHT22;48241;48.824;10.102;2023-09-30T05:31:29;16.50;97.30
62259;DHT22;48241;48.824;10.102;2023-09-30T05:33:54;16.50;97.50
62259;DHT22;48241;48.824;10.102;2023-09-30T05:36:21;16.40;98.00
62259;DHT22;48241;48.824;10.102;2023-09-30T05:38:46;16.50;98.20
62259;DHT22;48241;48.824;10.102;2023-09-30T05:41:14;16.70;97.50
62259;DHT22;48241;48.824;10.102;2023-09-30T05:43:40;17.00;97.10
62259;DHT22;48241;48.824;10.102;2023-09-30T05:46:08;16.80;96.80
62259;DHT22;48241;48.824;10.102;2023-09-30T05:48:34;17.10;96.70
62259;DHT22;48241;48.824;10.102;2023-09-30T05:50:59;17.20;96.40
62259;DHT22;48241;48.824;10.102;2023-09-30T05:53:25;17.00;96.50
62259;DHT22;48241;48.824;10.102;2023-09-30T05:55:52;17.20;96.30
62259;DHT22;48241;48.824;10.102;2023-09-30T05:58:19;17.20;96.10
62259;DHT22;48241;48.824;10.102;2023-09-30T06:00:44;17.00;96.70
62259;DHT22;48241;48.824;10.102;2023-09-30T06:03:10;17.10;96.70
62259;DHT22;48241;48.824;10.102;2023-09-30T06:05:39;17.50;96.30
62259;DHT22;48241;48.824;10.102;2023-09-30T06:08:05;17.60;96.50
62259;DHT22;48241;48.824;10.102;2023-09-30T06:10:34;17.70;95.90
62259;DHT22;48241;48.824;10.102;2023-09-30T06:13:00;17.90;95.40
62259;DHT22;48241;48.824;10.102;2023-09-30T06:15:27;18.00;95.10
62259;DHT22;48241;48.824;10.102;2023-09-30T06:17:57;17.90;95.00
62259;DHT22;48241;48.824;10.102;2023-09-30T06:20:23;18.10;94.80
62259;DHT22;48241;48.824;10.102;2023-09-30T06:22:51;17.80;94.90
62259;DHT22;48241;48.824;10.102;2023-09-30T06:25:20;17.80;95.20
62259;DHT22;48241;48.824;10.102;2023-09-30T06:27:48;17.80;94.90
62259;DHT22;48241;48.824;10.102;2023-09-30T06:30:15;17.90;95.00
62259;DHT22;48241;48.824;10.102;2023-09-30T06:32:45;18.30;94.60
62259;DHT22;48241;48.824;10.102;2023-09-30T06:35:11;18.50;94.10
62259;DHT22;48241;48.824;10.102;2023-09-30T06:37:37;18.60;94.00
62259;DHT22;48241;48.824;10.102;2023-09-30T06:40:07;18.50;93.70
62259;DHT22;48241;48.824;10.102;2023-09-30T06:42:34;18.60;93.50
62259;DHT22;48241;48.824;10.102;2023-09-30T06:45:01;18.70;93.30
62259;DHT22;48241;48.824;10.102;2023-09-30T06:47:27;18.60;93.60
62259;DHT22;48241;48.824;10.102;2023-09-30T06:49:53;18.60;93.80
62259;DHT22;48241;48.824;10.102;2023-09-30T06:52:18;18.60;93.50
62259;DHT22;48241;48.824;10.102;2023-09-30T06:54:45;18.60;93.30
62259;DHT22;48241;48.824;10.102;2023-09-30T06:57:10;18.80;93.50
62259;DHT22;48241;48.824;10.102;2023-09-30T06:59:36;19.20;93.10
62259;DHT22;48241;48.824;10.102;2023-09-30T07:02:02;19.40;92.40
62259;DHT22;48241;48.824;10.102;2023-09-30T07:04:29;19.50;91.70
62259;DHT22;48241;48.824;10.102;2023-09-30T07:06:55;19.90;91.20
62259;DHT22;48241;48.824;10.102;2023-09-30T07:09:20;19.90;90.30
62259;DHT22;48241;48.824;10.102;2023-09-30T07:11:46;20.00;90.10
62259;DHT22;48241;48.824;10.102;2023-09-30T07:14:12;20.20;90.10
62259;DHT22;48241;48.824;10.102;2023-09-30T07:16:37;20.30;90.10
62259;DHT22;48241;48.824;10.102;2023-09-30T07:19:04;20.40;88.80
62259;DHT22;48241;48.824;10.102;2023-09-30T07:21:30;20.40;87.90
62259;DHT22;48241;48.824;10.102;2023-09-30T07:23:58;20.60;87.80
62259;DHT22;48241;48.824;10.102;2023-09-30T07:26:27;20.70;87.90
62259;DHT22;48241;48.824;10.102;2023-09-30T07:28:56;20.80;87.20
62259;DHT22;48241;48.824;10.102;2023-09-30T07:31:23;21.10;85.60
62259;DHT22;48241;48.824;10.102;2023-09-30T07:33:52;21.50;84.10
62259;DHT22;48241;48.824;10.102;2023-09-30T07:36:18;21.70;81.50
62259;DHT22;48241;48.824;10.102;2023-09-30T07:38:43;22.00;81.00
62259;DHT22;48241;48.824;10.102;2023-09-30T07:41:09;22.10;79.10
62259;DHT22;48241;48.824;10.102;2023-09-30T07:43:35;22.30;78.60
62259;DHT22;48241;48.824;10.102;2023-09-30T07:46:06;22.60;77.00
62259;DHT22;48241;48.824;10.102;2023-09-30T07:48:31;22.50;75.10
62259;DHT22;48241;48.824;10.102;2023-09-30T07:50:58;22.80;74.90
62259;DHT22;48241;48.824;10.102;2023-09-30T07:53:23;22.70;75.90
62259;DHT22;48241;48.824;10.102;2023-09-30T07:55:49;23.20;74.80
62259;DHT22;48241;48.824;10.102;2023-09-30T07:58:14;24.00;72.90
62259;DHT22;48241;48.824;10.102;2023-09-30T08:00:40;24.50;70.30
62259;DHT22;48241;48.824;10.102;2023-09-30T08:03:05;24.70;68.50
62259;DHT22;48241;48.824;10.102;2023-09-30T08:05:34;25.30;68.20
62259;DHT22;48241;48.824;10.102;2023-09-30T08:08:01;25.60;64.20
62259;DHT22;48241;48.824;10.102;2023-09-30T08:10:27;25.40;63.90
62259;DHT22;48241;48.824;10.102;2023-09-30T08:12:55;26.10;63.70
62259;DHT22;48241;48.824;10.102;2023-09-30T08:15:23;26.80;61.50
62259;DHT22;48241;48.824;10.102;2023-09-30T08:17:51;27.60;59.10
62259;DHT22;48241;48.824;10.102;2023-09-30T08:20:17;28.10;58.40
62259;DHT22;48241;48.824;10.102;2023-09-30T08:22:44;29.00;57.00
62259;DHT22;48241;48.824;10.102;2023-09-30T08:25:10;29.80;56.10
62259;DHT22;48241;48.824;10.102;2023-09-30T08:27:37;30.20;53.60
62259;DHT22;48241;48.824;10.102;2023-09-30T08:30:03;29.40;53.20
62259;DHT22;48241;48.824;10.102;2023-09-30T08:32:35;29.40;53.70
62259;DHT22;48241;48.824;10.102;2023-09-30T08:35:04;29.30;52.70
62259;DHT22;48241;48.824;10.102;2023-09-30T08:37:30;29.50;52.00
62259;DHT22;48241;48.824;10.102;2023-09-30T08:39:56;29.50;51.90
62259;DHT22;48241;48.824;10.102;2023-09-30T08:42:22;29.40;50.90
62259;DHT22;48241;48.824;10.102;2023-09-30T08:44:52;29.00;50.90
62259;DHT22;48241;48.824;10.102;2023-09-30T08:47:20;29.30;51.20
62259;DHT22;48241;48.824;10.102;2023-09-30T08:49:46;29.40;51.30
62259;DHT22;48241;48.824;10.102;2023-09-30T08:52:14;29.30;49.00
62259;DHT22;48241;48.824;10.102;2023-09-30T08:54:40;29.00;50.70
62259;DHT22;48241;48.824;10.102;2023-09-30T08:57:10;28.40;50.60
62259;DHT22;48241;48.824;10.102;2023-09-30T08:59:37;28.50;50.90
62259;DHT22;48241;48.824;10.102;2023-09-30T09:02:08;28.60;50.60
62259;DHT22;48241;48.824;10.102;2023-09-30T09:04:35;28.70;51.30
62259;DHT22;48241;48.824;10.102;2023-09-30T09:07:01;28.60;51.60
62259;DHT22;48241;48.824;10.102;2023-09-30T09:09:27;28.20;51.00
62259;DHT22;48241;48.824;10.102;2023-09-30T09:11:52;28.10;50.00
62259;DHT22;48241;48.824;10.102;2023-09-30T09:14:18;28.40;51.00
62259;DHT22;48241;48.824;10.102;2023-09-30T09:16:55;29.10;49.10
62259;DHT22;48241;48.824;10.102;2023-09-30T09:19:21;28.90;48.10
62259;DHT22;48241;48.824;10.102;2023-09-30T09:22:07;29.20;48.20
62259;DHT22;48241;48.824;10.102;2023-09-30T09:24:37;29.80;47.40
62259;DHT22;48241;48.824;10.102;2023-09-30T09:27:11;29.40;48.70
62259;DHT22;48241;48.824;10.102;2023-09-30T09:29:39;29.00;48.80
62259;DHT22;48241;48.824;10.102;2023-09-30T09:32:12;28.70;49.70
62259;DHT22;48241;48.824;10.102;2023-09-30T09:34:39;29.20;48.80
62259;DHT22;48241;48.824;10.102;2023-09-30T09:37:21;29.50;48.10
62259;DHT22;48241;48.824;10.102;2023-09-30T09:39:56;29.90;46.90
62259;DHT22;48241;48.824;10.102;2023-09-30T09:42:32;29.90;46.70
62259;DHT22;48241;48.824;10.102;2023-09-30T09:45:03;30.10;45.10
62259;DHT22;48241;48.824;10.102;2023-09-30T09:47:33;30.20;44.30
62259;DHT22;48241;48.824;10.102;2023-09-30T09:49:59;29.50;46.20
62259;DHT22;48241;48.824;10.102;2023-09-30T09:52:28;28.60;46.50
62259;DHT22;48241;48.824;10.102;2023-09-30T09:54:54;27.90;48.40
62259;DHT22;48241;48.824;10.102;2023-09-30T09:57:31;27.00;50.50
62259;DHT22;48241;48.824;10.102;2023-09-30T10:00:12;26.30;51.50
62259;DHT22;48241;48.824;10.102;2023-09-30T10:02:40;26.10;52.80
62259;DHT22;48241;48.824;10.102;2023-09-30T10:05:14;25.40;52.80
62259;DHT22;48241;48.824;10.102;2023-09-30T10:08:00;25.50;53.10
62259;DHT22;48241;48.824;10.102;2023-09-30T10:10:27;25.10;54.60
62259;DHT22;48241;48.824;10.102;2023-09-30T10:12:54;25.00;56.00
62259;DHT22;48241;48.824;10.102;2023-09-30T10:18:04;24.70;54.50
62259;DHT22;48241;48.824;10.102;2023-09-30T10:20:31;24.80;54.00
62259;DHT22;48241;48.824;10.102;2023-09-30T10:23:20;24.70;53.70
62259;DHT22;48241;48.824;10.102;2023-09-30T10:25:47;24.50;54.20
62259;DHT22;48241;48.824;10.102;2023-09-30T10:31:18;24.20;55.20
62259;DHT22;48241;48.824;10.102;2023-09-30T10:36:40;23.40;58.70
62259;DHT22;48241;48.824;10.102;2023-09-30T10:39:14;23.50;59.20
62259;DHT22;48241;48.824;10.102;2023-09-30T10:46:52;24.00;56.90
62259;DHT22;48241;48.824;10.102;2023-09-30T10:51:51;24.20;57.40
62259;DHT22;48241;48.824;10.102;2023-09-30T10:54:29;24.20;57.60
62259;DHT22;48241;48.824;10.102;2023-09-30T10:56:55;24.00;56.60
62259;DHT22;48241;48.824;10.102;2023-09-30T10:59:25;24.20;55.90
62259;DHT22;48241;48.824;10.102;2023-09-30T11:01:51;24.60;55.80
62259;DHT22;48241;48.824;10.102;2023-09-30T11:04:18;25.00;55.20
62259;DHT22;48241;48.824;10.102;2023-09-30T11:06:45;25.10;53.20
62259;DHT22;48241;48.824;10.102;2023-09-30T11:09:19;25.20;53.90
62259;DHT22;48241;48.824;10.102;2023-09-30T11:11:50;25.70;53.30
62259;DHT22;48241;48.824;10.102;2023-09-30T11:14:17;25.90;52.00
62259;DHT22;48241;48.824;10.102;2023-09-30T11:16:44;25.80;52.50
62259;DHT22;48241;48.824;10.102;2023-09-30T11:19:11;26.30;52.80
62259;DHT22;48241;48.824;10.102;2023-09-30T11:21:37;26.60;51.80
62259;DHT22;48241;48.824;10.102;2023-09-30T11:24:03;26.90;52.10
62259;DHT22;48241;48.824;10.102;2023-09-30T11:26:37;26.80;49.60
62259;DHT22;48241;48.824;10.102;2023-09-30T11:29:18;26.20;50.60
62259;DHT22;48241;48.824;10.102;2023-09-30T11:31:46;26.00;50.70
62259;DHT22;48241;48.824;10.102;2023-09-30T11:34:15;25.90;50.80
62259;DHT22;48241;48.824;10.102;2023-09-30T11:37:00;25.70;53.30
62259;DHT22;48241;48.824;10.102;2023-09-30T11:39:27;25.90;51.10
62259;DHT22;48241;48.824;10.102;2023-09-30T11:42:14;25.90;51.30
62259;DHT22;48241;48.824;10.102;2023-09-30T11:44:48;25.90;50.10
62259;DHT22;48241;48.824;10.102;2023-09-30T11:47:28;25.50;50.50
62259;DHT22;48241;48.824;10.102;2023-09-30T11:50:14;25.20;50.10
62259;DHT22;48241;48.824;10.102;2023-09-30T11:52:44;25.10;49.50
62259;DHT22;48241;48.824;10.102;2023-09-30T11:55:12;25.00;50.80
62259;DHT22;48241;48.824;10.102;2023-09-30T11:57:38;24.80;49.90
62259;DHT22;48241;48.824;10.102;2023-09-30T12:00:04;24.60;50.60
62259;DHT22;48241;48.824;10.102;2023-09-30T12:02:38;24.40;51.00
62259;DHT22;48241;48.824;10.102;2023-09-30T12:05:06;24.30;54.80
62259;DHT22;48241;48.824;10.102;2023-09-30T12:07:42;24.10;56.40
62259;DHT22;48241;48.824;10.102;2023-09-30T12:10:11;23.80;56.50
62259;DHT22;48241;48.824;10.102;2023-09-30T12:12:39;24.10;56.50
62259;DHT22;48241;48.824;10.102;2023-09-30T12:15:05;24.20;52.00
62259;DHT22;48241;48.824;10.102;2023-09-30T12:17:31;24.30;56.90
62259;DHT22;48241;48.824;10.102;2023-09-30T12:20:00;24.70;54.90
62259;DHT22;48241;48.824;10.102;2023-09-30T12:22:25;25.00;54.80
62259;DHT22;48241;48.824;10.102;2023-09-30T12:24:51;25.00;51.10
62259;DHT22;48241;48.824;10.102;2023-09-30T12:27:17;24.80;49.90
62259;DHT22;48241;48.824;10.102;2023-09-30T12:29:43;24.80;49.20
62259;DHT22;48241;48.824;10.102;2023-09-30T12:32:09;24.70;50.90
62259;DHT22;48241;48.824;10.102;2023-09-30T12:34:35;24.50;50.20
62259;DHT22;48241;48.824;10.102;2023-09-30T12:37:01;24.40;50.80
62259;DHT22;48241;48.824;10.102;2023-09-30T12:39:26;24.50;52.70
62259;DHT22;48241;48.824;10.102;2023-09-30T12:41:55;24.80;52.00
62259;DHT22;48241;48.824;10.102;2023-09-30T12:44:21;25.20;51.90
62259;DHT22;48241;48.824;10.102;2023-09-30T12:46:48;25.40;53.60
62259;DHT22;48241;48.824;10.102;2023-09-30T12:49:13;25.70;50.90
62259;DHT22;48241;48.824;10.102;2023-09-30T12:51:39;25.70;48.60
62259;DHT22;48241;48.824;10.102;2023-09-30T12:54:05;25.60;50.20
62259;DHT22;48241;48.824;10.102;2023-09-30T12:56:30;25.60;49.90
62259;DHT22;48241;48.824;10.102;2023-09-30T12:58:56;25.40;50.20
62259;DHT22;48241;48.824;10.102;2023-09-30T13:01:22;25.20;49.40
62259;DHT22;48241;48.824;10.102;2023-09-30T13:03:48;24.90;50.30
62259;DHT22;48241;48.824;10.102;2023-09-30T13:06:14;24.90;50.60
62259;DHT22;48241;48.824;10.102;2023-09-30T13:08:44;24.70;49.30
62259;DHT22;48241;48.824;10.102;2023-09-30T13:11:09;24.60;50.70
62259;DHT22;48241;48.824;10.102;2023-09-30T13:13:36;24.30;51.50
62259;DHT22;48241;48.824;10.102;2023-09-30T13:16:03;24.20;50.90
62259;DHT22;48241;48.824;10.102;2023-09-30T13:18:35;24.20;52.80
62259;DHT22;48241;48.824;10.102;2023-09-30T13:21:02;24.30;50.20
62259;DHT22;48241;48.824;10.102;2023-09-30T13:23:28;24.30;51.40
62259;DHT22;48241;48.824;10.102;2023-09-30T13:25:55;24.60;50.10
62259;DHT22;48241;48.824;10.102;2023-09-30T13:28:21;24.80;49.70
62259;DHT22;48241;48.824;10.102;2023-09-30T13:30:46;24.40;48.30
62259;DHT22;48241;48.824;10.102;2023-09-30T13:33:13;24.40;49.30
62259;DHT22;48241;48.824;10.102;2023-09-30T13:35:45;24.30;48.50
62259;DHT22;48241;48.824;10.102;2023-09-30T13:38:11;23.70;49.10
62259;DHT22;48241;48.824;10.102;2023-09-30T13:40:36;23.80;52.00
62259;DHT22;48241;48.824;10.102;2023-09-30T13:43:04;23.90;52.40
62259;DHT22;48241;48.824;10.102;2023-09-30T13:45:30;23.90;54.50
62259;DHT22;48241;48.824;10.102;2023-09-30T13:47:55;24.10;49.00
62259;DHT22;48241;48.824;10.102;2023-09-30T13:50:21;23.90;50.20
62259;DHT22;48241;48.824;10.102;2023-09-30T13:52:47;23.90;56.40
62259;DHT22;48241;48.824;10.102;2023-09-30T13:55:12;23.90;52.10
62259;DHT22;48241;48.824;10.102;2023-09-30T13:57:47;23.60;52.90
62259;DHT22;48241;48.824;10.102;2023-09-30T14:00:16;23.60;53.00
62259;DHT22;48241;48.824;10.102;2023-09-30T14:02:42;23.50;53.80
62259;DHT22;48241;48.824;10.102;2023-09-30T14:05:09;23.60;52.90
62259;DHT22;48241;48.824;10.102;2023-09-30T14:07:37;23.60;53.70
62259;DHT22;48241;48.824;10.102;2023-09-30T14:10:06;23.30;53.70
62259;DHT22;48241;48.824;10.102;2023-09-30T14:12:31;23.00;54.10
62259;DHT22;48241;48.824;10.102;2023-09-30T14:14:57;23.10;54.20
62259;DHT22;48241;48.824;10.102;2023-09-30T14:17:22;23.20;53.40
62259;DHT22;48241;48.824;10.102;2023-09-30T14:19:48;23.20;54.80
62259;DHT22;48241;48.824;10.102;2023-09-30T14:22:15;22.90;54.80
62259;DHT22;48241;48.824;10.102;2023-09-30T14:24:40;22.90;54.70
62259;DHT22;48241;48.824;10.102;2023-09-30T14:27:06;22.80;59.00
62259;DHT22;48241;48.824;10.102;2023-09-30T14:29:33;22.80;56.80
62259;DHT22;48241;48.824;10.102;2023-09-30T14:31:58;22.90;54.50
62259;DHT22;48241;48.824;10.102;2023-09-30T14:34:24;22.80;54.60
62259;DHT22;48241;48.824;10.102;2023-09-30T14:36:51;22.60;54.20
62259;DHT22;48241;48.824;10.102;2023-09-30T14:39:17;22.70;57.60
62259;DHT22;48241;48.824;10.102;2023-09-30T14:41:43;22.60;62.30
62259;DHT22;48241;48.824;10.102;2023-09-30T14:44:09;22.70;62.00
62259;DHT22;48241;48.824;10.102;2023-09-30T14:46:37;22.60;57.80
62259;DHT22;48241;48.824;10.102;2023-09-30T14:49:03;22.50;62.80
62259;DHT22;48241;48.824;10.102;2023-09-30T14:51:29;22.10;65.30
62259;DHT22;48241;48.824;10.102;2023-09-30T14:53:55;22.00;66.00
62259;DHT22;48241;48.824;10.102;2023-09-30T14:56:20;21.80;67.00
62259;DHT22;48241;48.824;10.102;2023-09-30T14:58:46;21.40;66.40
62259;DHT22;48241;48.824;10.102;2023-09-30T15:01:12;21.40;69.70
62259;DHT22;48241;48.824;10.102;2023-09-30T15:03:38;21.20;70.60
62259;DHT22;48241;48.824;10.102;2023-09-30T15:06:05;20.90;71.30
62259;DHT22;48241;48.824;10.102;2023-09-30T15:08:31;20.70;72.30
62259;DHT22;48241;48.824;10.102;2023-09-30T15:10:59;20.30;70.50
62259;DHT22;48241;48.824;10.102;2023-09-30T15:13:25;20.30;73.00
62259;DHT22;48241;48.824;10.102;2023-09-30T15:15:51;20.20;73.30
62259;DHT22;48241;48.824;10.102;2023-09-30T15:18:16;19.90;75.40
62259;DHT22;48241;48.824;10.102;2023-09-30T15:20:42;19.80;74.80
62259;DHT22;48241;48.824;10.102;2023-09-30T15:23:09;19.70;76.00
62259;DHT22;48241;48.824;10.102;2023-09-30T15:25:42;19.60;76.30
62259;DHT22;48241;48.824;10.102;2023-09-30T15:28:09;19.70;77.10
62259;DHT22;48241;48.824;10.102;2023-09-30T15:30:35;19.60;77.70
62259;DHT22;48241;48.824;10.102;2023-09-30T15:33:01;19.60;78.70